createdAt,value
2023-03-08T00:04:31.799Z,10.40
2023-03-08T00:09:34.454Z,10.70
2023-03-08T00:14:37.422Z,10.90
2023-03-08T00:19:39.938Z,10.40
2023-03-08T00:24:42.536Z,10.70
2023-03-08T00:29:45.092Z,10.40
2023-03-08T00:34:47.618Z,10.50
2023-03-08T00:39:54.128Z,10.90
2023-03-08T00:44:56.728Z,10.90
2023-03-08T00:49:59.439Z,10.10
2023-03-08T00:55:02.035Z,10.80
2023-03-08T01:00:08.372Z,10.70
2023-03-08T01:05:11.194Z,10.40
2023-03-08T01:10:14.207Z,10.40
2023-03-08T01:15:16.788Z,10.10
2023-03-08T01:20:19.473Z,11.10
2023-03-08T01:25:21.975Z,10.90
2023-03-08T01:30:25.938Z,10.30
2023-03-08T01:35:28.411Z,10.70
2023-03-08T01:40:31.136Z,10.90
2023-03-08T01:46:11.394Z,10.70
2023-03-08T01:51:19.970Z,9.70
2023-03-08T01:56:23.659Z,10.20
2023-03-08T02:01:26.517Z,10.70
2023-03-08T02:06:32.614Z,10.60
2023-03-08T02:11:38.610Z,9.90
2023-03-08T02:16:41.369Z,10.30
2023-03-08T02:21:44.559Z,11.00
2023-03-08T02:26:49.652Z,11.00
2023-03-08T02:31:52.303Z,10.40
2023-03-08T02:36:54.910Z,10.50
2023-03-08T02:41:57.612Z,10.20
2023-03-08T02:47:00.119Z,10.80
2023-03-08T02:52:02.866Z,10.80
2023-03-08T02:57:05.478Z,10.20
2023-03-08T03:02:10.223Z,10.00
2023-03-08T03:07:12.788Z,9.40
2023-03-08T03:12:15.418Z,10.30
2023-03-08T03:17:18.595Z,10.40
2023-03-08T03:22:21.265Z,9.90
2023-03-08T03:27:24.510Z,10.20
2023-03-08T03:32:29.993Z,10.30
2023-03-08T03:37:36.611Z,9.80
2023-03-08T03:42:39.796Z,10.20
2023-03-08T03:47:48.125Z,10.10
2023-03-08T03:52:51.433Z,10.20
2023-03-08T03:57:54.266Z,10.70
2023-03-08T04:02:57.872Z,10.60
2023-03-08T04:08:01.738Z,10.00
2023-03-08T04:13:11.649Z,10.50
2023-03-08T04:18:15.537Z,10.60
2023-03-08T04:23:20.903Z,9.90
2023-03-08T04:28:24.408Z,9.80
2023-03-08T04:33:27.402Z,9.80
2023-03-08T04:38:33.482Z,9.50
2023-03-08T04:43:38.994Z,9.90
2023-03-08T04:48:42.071Z,9.50
2023-03-08T04:53:46.384Z,9.60
2023-03-08T04:58:49.361Z,9.60
2023-03-08T05:03:55.516Z,10.40
2023-03-08T05:09:05.146Z,10.30
2023-03-08T05:14:10.071Z,10.50
2023-03-08T05:19:13.236Z,10.50
2023-03-08T05:24:22.889Z,10.60
2023-03-08T05:29:25.953Z,10.40
2023-03-08T05:34:29.681Z,10.20
2023-03-08T05:39:33.399Z,10.30
2023-03-08T05:44:41.652Z,9.40
2023-03-08T05:49:47.388Z,9.60
2023-03-08T05:54:51.536Z,9.80
2023-03-08T05:59:55.981Z,10.40
2023-03-08T06:04:59.188Z,11.10
2023-03-08T06:10:02.683Z,10.40
2023-03-08T06:15:06.181Z,10.90
2023-03-08T06:20:12.157Z,10.90
2023-03-08T06:25:20.825Z,11.10
2023-03-08T06:30:24.787Z,10.80
2023-03-08T06:35:28.480Z,10.50
2023-03-08T06:40:35.730Z,10.70
2023-03-08T06:45:39.440Z,10.90
2023-03-08T06:50:42.994Z,10.30
2023-03-08T06:55:45.737Z,10.30
2023-03-08T07:00:48.355Z,10.00
2023-03-08T07:05:50.943Z,10.00
2023-03-08T07:10:53.871Z,11.00
2023-03-08T07:15:57.337Z,10.60
2023-03-08T07:20:59.954Z,10.90
2023-03-08T07:26:09.401Z,10.30
2023-03-08T07:31:13.063Z,9.90
2023-03-08T07:36:15.756Z,10.80
2023-03-08T07:41:18.330Z,10.50
2023-03-08T07:46:20.864Z,10.70
2023-03-08T07:51:24.148Z,10.20
2023-03-08T07:56:26.840Z,11.30
2023-03-08T08:01:29.385Z,11.90
2023-03-08T08:06:31.867Z,11.40
2023-03-08T08:11:34.687Z,11.50
2023-03-08T08:16:37.362Z,12.10
2023-03-08T08:21:39.816Z,11.50
2023-03-08T08:26:42.418Z,11.30
2023-03-08T08:31:44.948Z,10.60
2023-03-08T08:36:47.655Z,10.80
2023-03-08T08:41:50.762Z,11.40
2023-03-08T08:46:53.157Z,11.30
2023-03-08T08:51:55.737Z,11.20
2023-03-08T08:56:58.437Z,11.60
2023-03-08T09:02:01.232Z,11.40
2023-03-08T09:07:04.379Z,11.60
2023-03-08T09:12:07.398Z,10.90
2023-03-08T09:17:09.983Z,11.90
2023-03-08T09:22:12.725Z,11.60
2023-03-08T09:27:15.225Z,11.90
2023-03-08T09:32:17.932Z,12.20
2023-03-08T09:37:20.872Z,11.00
2023-03-08T09:42:27.586Z,10.90
2023-03-08T09:47:46.751Z,11.30
2023-03-08T09:52:54.653Z,11.30
2023-03-08T09:58:13.747Z,10.60
2023-03-08T10:03:36.358Z,10.80
2023-03-08T10:08:47.799Z,10.80
2023-03-08T10:13:56.698Z,10.90
2023-03-08T10:19:07.138Z,10.60
2023-03-08T10:24:26.851Z,11.00
2023-03-08T10:29:29.505Z,11.20
2023-03-08T10:34:35.178Z,11.20
2023-03-08T10:39:47.533Z,11.20
2023-03-08T10:45:13.701Z,10.50
2023-03-08T10:50:19.980Z,11.40
2023-03-08T10:55:29.574Z,11.60
2023-03-08T11:00:42.315Z,12.20
2023-03-08T11:05:58.446Z,10.90
2023-03-08T11:11:13.945Z,11.10
2023-03-08T11:16:34.535Z,7.30
2023-03-08T11:21:49.224Z,8.90
2023-03-08T11:27:18.636Z,9.40
2023-03-08T11:32:36.454Z,8.90
2023-03-08T11:37:46.765Z,9.60
2023-03-08T11:43:08.924Z,10.70
2023-03-08T11:48:21.812Z,10.70
2023-03-08T11:53:50.400Z,10.50
2023-03-08T11:58:56.679Z,11.60
2023-03-08T12:04:06.233Z,11.30
2023-03-08T12:09:38.168Z,11.50
2023-03-08T12:14:58.931Z,10.80
2023-03-08T12:20:02.488Z,10.80
2023-03-08T12:25:19.996Z,9.30
2023-03-08T12:31:02.177Z,8.70
2023-03-08T12:36:06.839Z,8.40
2023-03-08T12:41:30.427Z,9.00
2023-03-08T12:47:02.308Z,8.70
2023-03-08T12:52:07.677Z,8.20
2023-03-08T12:57:22.101Z,7.60
2023-03-08T13:02:31.070Z,7.30
2023-03-08T13:07:39.560Z,7.80
2023-03-08T13:13:36.698Z,7.50
2023-03-08T13:18:42.171Z,6.80
2023-03-08T13:23:53.742Z,6.40
2023-03-08T13:28:56.791Z,7.40
2023-03-08T13:34:00.178Z,7.10
2023-03-08T13:39:07.285Z,6.70
2023-03-08T13:44:22.969Z,6.50
2023-03-08T13:49:29.062Z,7.00
2023-03-08T13:54:37.438Z,7.30
2023-03-08T13:59:51.894Z,7.10
2023-03-08T14:04:54.978Z,7.70
2023-03-08T14:09:58.494Z,7.10
2023-03-08T14:15:04.344Z,7.60
2023-03-08T14:20:22.583Z,7.10
2023-03-08T14:25:25.318Z,7.00
2023-03-08T14:30:30.621Z,6.50
2023-03-08T14:35:37.568Z,7.00
2023-03-08T14:40:49.020Z,6.50
2023-03-08T14:46:06.704Z,6.10
2023-03-08T14:51:19.875Z,5.70
2023-03-08T14:56:22.457Z,5.40
2023-03-08T15:01:34.203Z,5.20
2023-03-08T15:06:39.888Z,5.10
2023-03-08T15:11:44.246Z,4.90
2023-03-08T15:16:46.885Z,4.90
2023-03-08T15:21:49.381Z,5.00
2023-03-08T15:26:52.858Z,5.40
2023-03-08T15:31:55.947Z,5.90
2023-03-08T15:36:58.493Z,6.30
2023-03-08T15:42:01.009Z,5.60
2023-03-08T15:47:04.117Z,6.10
2023-03-08T15:52:08.626Z,5.10
2023-03-08T15:57:11.394Z,4.50
2023-03-08T16:02:19.678Z,4.30
2023-03-08T16:07:22.179Z,4.20
2023-03-08T16:12:24.904Z,4.00
2023-03-08T16:17:30.365Z,4.30
2023-03-08T16:22:34.170Z,4.80
2023-03-08T16:27:38.277Z,4.20
2023-03-08T16:32:41.292Z,4.00
2023-03-08T16:37:43.849Z,3.60
2023-03-08T16:42:48.402Z,3.20
2023-03-08T16:47:52.277Z,3.20
2023-03-08T16:52:55.253Z,3.10
2023-03-08T16:57:57.760Z,2.90
2023-03-08T17:03:00.395Z,2.80
2023-03-08T17:08:02.819Z,2.90
2023-03-08T17:13:05.489Z,2.80
2023-03-08T17:18:09.125Z,3.00
2023-03-08T17:23:12.621Z,2.60
2023-03-08T17:28:16.099Z,2.50
2023-03-08T17:33:18.818Z,2.60
2023-03-08T17:38:21.418Z,2.80
2023-03-08T17:43:24.034Z,2.90
2023-03-08T17:48:26.686Z,2.70
2023-03-08T17:53:29.316Z,2.40
2023-03-08T17:58:31.870Z,2.20
2023-03-08T18:03:34.859Z,2.10
2023-03-08T18:08:37.443Z,2.00
2023-03-08T18:13:40.944Z,1.90
2023-03-08T18:18:45.693Z,1.90
2023-03-08T18:23:48.649Z,2.10
2023-03-08T18:28:51.326Z,2.30
2023-03-08T18:33:55.389Z,2.70
2023-03-08T18:38:58.039Z,3.30
2023-03-08T18:44:01.216Z,3.90
2023-03-08T18:49:09.548Z,3.50
2023-03-08T18:54:23.447Z,3.20
2023-03-08T18:59:26.616Z,3.60
2023-03-08T19:04:29.126Z,3.40
2023-03-08T19:09:31.667Z,3.60
2023-03-08T19:14:34.158Z,3.40
2023-03-08T19:19:37.708Z,2.70
2023-03-08T19:24:40.247Z,2.80
2023-03-08T19:29:42.856Z,2.80
2023-03-08T19:34:45.517Z,2.60
2023-03-08T19:39:48.106Z,2.70
2023-03-08T19:44:52.662Z,3.20
2023-03-08T19:49:55.111Z,3.40
2023-03-08T19:54:58.801Z,3.70
2023-03-08T20:00:01.328Z,3.80
2023-03-08T20:05:14.299Z,3.60
2023-03-08T20:10:18.011Z,3.70
2023-03-08T20:15:20.728Z,3.90
2023-03-08T20:20:23.775Z,3.30
2023-03-08T20:25:26.305Z,3.10
2023-03-08T20:30:29.261Z,3.70
2023-03-08T20:35:32.005Z,4.20
2023-03-08T20:40:34.741Z,3.80
2023-03-08T20:45:40.376Z,3.40
2023-03-08T20:50:42.883Z,3.10
2023-03-08T20:55:45.478Z,2.90
2023-03-08T21:00:48.097Z,3.00
2023-03-08T21:05:50.675Z,3.00
2023-03-08T21:10:56.770Z,3.60
2023-03-08T21:16:08.256Z,3.70
2023-03-08T21:21:23.979Z,4.10
2023-03-08T21:26:28.562Z,4.20
2023-03-08T21:31:32.949Z,3.30
2023-03-08T21:36:37.665Z,3.00
2023-03-08T21:41:42.359Z,2.60
2023-03-08T21:46:46.613Z,2.50
2023-03-08T21:51:49.623Z,2.60
2023-03-08T21:56:52.359Z,2.90
2023-03-08T22:01:58.468Z,2.60
2023-03-08T22:07:01.098Z,3.00
2023-03-08T22:12:04.293Z,3.20
2023-03-08T22:17:07.372Z,2.90
2023-03-08T22:22:11.397Z,3.10
2023-03-08T22:27:14.591Z,3.80
2023-03-08T22:32:17.056Z,3.80
2023-03-08T22:37:19.662Z,3.60
2023-03-08T22:42:23.507Z,3.60
2023-03-08T22:47:26.187Z,3.60
2023-03-08T22:52:28.753Z,4.00
2023-03-08T22:57:31.890Z,3.80
2023-03-08T23:02:35.018Z,3.50
2023-03-08T23:07:37.650Z,3.30
2023-03-08T23:12:40.594Z,3.30
2023-03-08T23:17:43.231Z,3.70
2023-03-08T23:22:47.286Z,3.50
2023-03-08T23:27:49.919Z,3.20
2023-03-08T23:32:52.488Z,3.70
2023-03-08T23:37:55.126Z,3.90
2023-03-08T23:42:57.537Z,3.40
2023-03-08T23:48:02.227Z,3.70
2023-03-08T23:53:06.446Z,3.30
2023-03-08T23:58:09.296Z,3.60
